PWSweather.com
Personal Weather Stations
Station Observations

SkegnessGB

Lat: 53.147585, Lon: 0.345774

Elevation: 18

Station Type: Fine Offset WH3080

http://www.skegnessweather.info/

High Low Average
Temperature 70.2°F21.2°C 56.7°F13.7°C 61.9°F16.6°C
Dew Point 61.7°F16.5°C 55.0°F12.8°C 58.5°F14.7°C
Winds 17.9 mph 28.8 kmh 1.3 mph 2.1 kmh 10.0 mph S16.1 kmh S
Wind Gusts 22.6 mph36.4 kmh 2.5 mph4.0 kmh 12.0 mph19.3 kmh
Humidity 100% 74% 89%
Pressure 29.73 in1006.8 mb 29.61 in1002.7 mb -
Precipitation 0.04 in1.0 mm - -
Hour Temp Dew Point Humidity Winds Wind Gusts Pressure Precip Precip Rate Daily Precip Total
12:00 AM 57.6°F14.2°C 57.3°F14.1°C 99% 1.6 mph NW2.6 kmh NW 3.4 mph5.5 kmh 29.73 in1006.8 mb 0.00 in0.0 mm 0.00 in0.0 mm 0.00 in0.0 mm
12:10 AM 57.4°F14.1°C 57.1°F13.9°C 99% 1.3 mph NW2.1 kmh NW 2.5 mph4.0 kmh 29.71 in1006.1 mb 0.00 in0.0 mm 0.00 in0.0 mm 0.00 in0.0 mm
12:20 AM 57.4°F14.1°C 57.1°F13.9°C 99% 2.1 mph NNW3.4 kmh NNW 4.9 mph7.9 kmh 29.72 in1006.4 mb 0.00 in0.0 mm 0.00 in0.0 mm 0.00 in0.0 mm
12:30 AM 57.6°F14.2°C 57.3°F14.1°C 99% 3.5 mph S5.6 kmh S 4.9 mph7.9 kmh 29.71 in1006.1 mb 0.00 in0.0 mm 0.00 in0.0 mm 0.00 in0.0 mm
12:40 AM 57.6°F14.2°C 57.3°F14.1°C 99% 5.0 mph W8.0 kmh W 9.1 mph14.6 kmh 29.71 in1006.1 mb 0.00 in0.0 mm 0.00 in0.0 mm 0.00 in0.0 mm
12:50 AM 57.6°F14.2°C 57.3°F14.1°C 99% 3.1 mph SE5.0 kmh SE 4.9 mph7.9 kmh 29.71 in1006.1 mb 0.00 in0.0 mm 0.00 in0.0 mm 0.00 in0.0 mm
01:00 AM 57.6°F14.2°C 57.3°F14.1°C 99% 3.5 mph S5.6 kmh S 8.4 mph13.5 kmh 29.70 in1005.8 mb 0.00 in0.0 mm 0.00 in0.0 mm 0.00 in0.0 mm
01:10 AM 57.6°F14.2°C 57.3°F14.1°C 99% 3.0 mph N4.8 kmh N 4.9 mph7.9 kmh 29.71 in1006.1 mb 0.00 in0.0 mm 0.00 in0.0 mm 0.00 in0.0 mm
01:20 AM 57.4°F14.1°C 57.1°F13.9°C 99% 3.8 mph S6.1 kmh S 5.9 mph9.5 kmh 29.70 in1005.8 mb 0.00 in0.0 mm 0.00 in0.0 mm 0.00 in0.0 mm
01:30 AM 57.4°F14.1°C 57.1°F13.9°C 99% 3.8 mph SE6.1 kmh SE 5.9 mph9.5 kmh 29.70 in1005.8 mb 0.00 in0.0 mm 0.00 in0.0 mm 0.00 in0.0 mm
01:40 AM 57.4°F14.1°C 57.1°F13.9°C 99% 3.3 mph NW5.3 kmh NW 4.9 mph7.9 kmh 29.69 in1005.4 mb 0.00 in0.0 mm 0.00 in0.0 mm 0.00 in0.0 mm
01:50 AM 57.2°F14.0°C 56.9°F13.8°C 99% 2.2 mph NNW3.5 kmh NNW 4.9 mph7.9 kmh 29.69 in1005.4 mb 0.00 in0.0 mm 0.00 in0.0 mm 0.00 in0.0 mm
02:00 AM 57.2°F14.0°C 56.9°F13.8°C 99% 1.6 mph SE2.6 kmh SE 2.5 mph4.0 kmh 29.68 in1005.1 mb 0.00 in0.0 mm 0.00 in0.0 mm 0.00 in0.0 mm
02:10 AM 57.0°F13.9°C 57.0°F13.9°C 100% 2.7 mph S4.3 kmh S 3.4 mph5.5 kmh 29.68 in1005.1 mb 0.00 in0.0 mm 0.00 in0.0 mm 0.00 in0.0 mm
02:20 AM 57.0°F13.9°C 57.0°F13.9°C 100% 1.4 mph NNW2.3 kmh NNW 2.5 mph4.0 kmh 29.67 in1004.7 mb 0.00 in0.0 mm 0.00 in0.0 mm 0.00 in0.0 mm
02:30 AM 57.0°F13.9°C 57.0°F13.9°C 100% 2.1 mph W3.4 kmh W 4.9 mph7.9 kmh 29.67 in1004.7 mb 0.00 in0.0 mm 0.00 in0.0 mm 0.00 in0.0 mm
02:40 AM 56.8°F13.8°C 56.8°F13.8°C 100% 3.0 mph WSW4.8 kmh WSW 6.6 mph10.6 kmh 29.67 in1004.7 mb 0.00 in0.0 mm 0.00 in0.0 mm 0.00 in0.0 mm
02:50 AM 56.8°F13.8°C 56.8°F13.8°C 100% 2.6 mph ENE4.2 kmh ENE 4.9 mph7.9 kmh 29.66 in1004.4 mb 0.00 in0.0 mm 0.00 in0.0 mm 0.00 in0.0 mm
03:00 AM 56.8°F13.8°C 56.8°F13.8°C 100% 2.9 mph S4.7 kmh S 4.9 mph7.9 kmh 29.65 in1004.1 mb 0.00 in0.0 mm 0.00 in0.0 mm 0.00 in0.0 mm
03:10 AM 56.7°F13.7°C 56.7°F13.7°C 100% 2.3 mph SW3.7 kmh SW 4.2 mph6.8 kmh 29.65 in1004.1 mb 0.00 in0.0 mm 0.00 in0.0 mm 0.00 in0.0 mm
03:20 AM 56.7°F13.7°C 56.7°F13.7°C 100% 2.5 mph ENE4.0 kmh ENE 4.2 mph6.8 kmh 29.65 in1004.1 mb 0.00 in0.0 mm 0.00 in0.0 mm 0.00 in0.0 mm
03:30 AM 56.7°F13.7°C 56.7°F13.7°C 100% 2.5 mph SE4.0 kmh SE 4.2 mph6.8 kmh 29.65 in1004.1 mb 0.00 in0.0 mm 0.00 in0.0 mm 0.00 in0.0 mm
03:40 AM 56.7°F13.7°C 56.7°F13.7°C 100% 3.1 mph S5.0 kmh S 6.6 mph10.6 kmh 29.65 in1004.1 mb 0.00 in0.0 mm 0.00 in0.0 mm 0.00 in0.0 mm
03:50 AM 56.8°F13.8°C 56.8°F13.8°C 100% 2.9 mph SSE4.7 kmh SSE 4.2 mph6.8 kmh 29.65 in1004.1 mb 0.00 in0.0 mm 0.00 in0.0 mm 0.00 in0.0 mm
04:00 AM 57.0°F13.9°C 57.0°F13.9°C 100% 3.6 mph E5.8 kmh E 6.6 mph10.6 kmh 29.65 in1004.1 mb 0.00 in0.0 mm 0.00 in0.0 mm 0.00 in0.0 mm
04:10 AM 57.2°F14.0°C 57.2°F14.0°C 100% 5.7 mph N9.2 kmh N 6.6 mph10.6 kmh 29.64 in1003.7 mb 0.00 in0.0 mm 0.00 in0.0 mm 0.00 in0.0 mm
04:20 AM 57.4°F14.1°C 57.4°F14.1°C 100% 5.8 mph S9.3 kmh S 9.1 mph14.6 kmh 29.63 in1003.4 mb 0.00 in0.0 mm 0.00 in0.0 mm 0.00 in0.0 mm
04:30 AM 57.6°F14.2°C 57.6°F14.2°C 100% 4.5 mph SE7.2 kmh SE 7.6 mph12.2 kmh 29.63 in1003.4 mb 0.00 in0.0 mm 0.00 in0.0 mm 0.00 in0.0 mm
04:40 AM 57.6°F14.2°C 57.6°F14.2°C 100% 2.4 mph SSE3.9 kmh SSE 4.2 mph6.8 kmh 29.63 in1003.4 mb 0.00 in0.0 mm 0.00 in0.0 mm 0.00 in0.0 mm
04:50 AM 57.4°F14.1°C 57.4°F14.1°C 100% 3.0 mph NNE4.8 kmh NNE 4.9 mph7.9 kmh 29.63 in1003.4 mb 0.00 in0.0 mm 0.00 in0.0 mm 0.00 in0.0 mm
05:00 AM 57.2°F14.0°C 57.2°F14.0°C 100% 3.0 mph ESE4.8 kmh ESE 4.9 mph7.9 kmh 29.62 in1003.0 mb 0.00 in0.0 mm 0.00 in0.0 mm 0.00 in0.0 mm
05:10 AM 57.0°F13.9°C 57.0°F13.9°C 100% 2.0 mph N3.2 kmh N 4.2 mph6.8 kmh 29.63 in1003.4 mb 0.00 in0.0 mm 0.00 in0.0 mm 0.00 in0.0 mm
05:20 AM 57.0°F13.9°C 57.0°F13.9°C 100% 1.8 mph SSE2.9 kmh SSE 3.4 mph5.5 kmh 29.63 in1003.4 mb 0.00 in0.0 mm 0.00 in0.0 mm 0.00 in0.0 mm
05:30 AM 57.0°F13.9°C 57.0°F13.9°C 100% 3.7 mph S6.0 kmh S 6.6 mph10.6 kmh 29.63 in1003.4 mb 0.00 in0.0 mm 0.00 in0.0 mm 0.00 in0.0 mm
05:50 AM 57.6°F14.2°C 57.6°F14.2°C 100% 5.1 mph SE8.2 kmh SE 6.6 mph10.6 kmh 29.63 in1003.4 mb 0.00 in0.0 mm 0.00 in0.0 mm 0.00 in0.0 mm
06:00 AM 57.6°F14.2°C 57.6°F14.2°C 100% 4.0 mph SE6.4 kmh SE 5.9 mph9.5 kmh 29.63 in1003.4 mb 0.00 in0.0 mm 0.00 in0.0 mm 0.00 in0.0 mm
06:10 AM 57.4°F14.1°C 57.4°F14.1°C 100% 4.6 mph SE7.4 kmh SE 4.2 mph6.8 kmh 29.62 in1003.0 mb 0.01 in0.3 mm 0.06 in1.5 mm 0.01 in0.3 mm
06:20 AM 57.6°F14.2°C 57.6°F14.2°C 100% 5.2 mph SE8.4 kmh SE 6.6 mph10.6 kmh 29.63 in1003.4 mb 0.01 in0.3 mm 0.00 in0.0 mm 0.01 in0.3 mm
06:30 AM 57.7°F14.3°C 57.7°F14.3°C 100% 9.1 mph S14.6 kmh S 8.4 mph13.5 kmh 29.63 in1003.4 mb 0.02 in0.5 mm 0.06 in1.5 mm 0.02 in0.5 mm
06:40 AM 57.6°F14.2°C 57.6°F14.2°C 100% 7.0 mph S11.3 kmh S 7.6 mph12.2 kmh 29.64 in1003.7 mb 0.02 in0.5 mm 0.00 in0.0 mm 0.02 in0.5 mm
06:50 AM 57.6°F14.2°C 57.6°F14.2°C 100% 4.9 mph SSE7.9 kmh SSE 7.6 mph12.2 kmh 29.63 in1003.4 mb 0.02 in0.5 mm 0.00 in0.0 mm 0.02 in0.5 mm
07:00 AM 57.6°F14.2°C 57.6°F14.2°C 100% 5.0 mph SSE8.0 kmh SSE 6.6 mph10.6 kmh 29.63 in1003.4 mb 0.02 in0.5 mm 0.00 in0.0 mm 0.02 in0.5 mm
07:10 AM 57.6°F14.2°C 57.6°F14.2°C 100% 5.5 mph SE8.9 kmh SE 9.1 mph14.6 kmh 29.64 in1003.7 mb 0.01 in0.3 mm 0.00 in0.0 mm 0.02 in0.5 mm
07:20 AM 57.7°F14.3°C 57.7°F14.3°C 100% 5.9 mph SE9.5 kmh SE 9.1 mph14.6 kmh 29.65 in1004.1 mb 0.01 in0.3 mm 0.00 in0.0 mm 0.02 in0.5 mm
07:30 AM 57.7°F14.3°C 57.7°F14.3°C 100% 7.8 mph SE12.6 kmh SE 9.1 mph14.6 kmh 29.64 in1003.7 mb 0.00 in0.0 mm 0.00 in0.0 mm 0.02 in0.5 mm
07:40 AM 57.9°F14.4°C 57.9°F14.4°C 100% 6.5 mph SE10.5 kmh SE 10.1 mph16.3 kmh 29.64 in1003.7 mb 0.00 in0.0 mm 0.00 in0.0 mm 0.02 in0.5 mm
07:50 AM 57.9°F14.4°C 57.9°F14.4°C 100% 9.8 mph SE15.8 kmh SE 11.8 mph19.0 kmh 29.65 in1004.1 mb 0.00 in0.0 mm 0.00 in0.0 mm 0.02 in0.5 mm
08:00 AM 58.3°F14.6°C 58.3°F14.6°C 100% 12.1 mph SSE19.5 kmh SSE 13.3 mph21.4 kmh 29.65 in1004.1 mb 0.00 in0.0 mm 0.00 in0.0 mm 0.02 in0.5 mm
08:10 AM 58.5°F14.7°C 58.5°F14.7°C 100% 15.1 mph S24.3 kmh S 13.3 mph21.4 kmh 29.65 in1004.1 mb 0.00 in0.0 mm 0.00 in0.0 mm 0.02 in0.5 mm
08:20 AM 58.5°F14.7°C 58.5°F14.7°C 100% 13.8 mph SSW22.2 kmh SSW 15.0 mph24.1 kmh 29.65 in1004.1 mb 0.00 in0.0 mm 0.00 in0.0 mm 0.02 in0.5 mm
08:30 AM 58.8°F14.9°C 58.3°F14.6°C 98% 13.6 mph SSE21.9 kmh SSE 16.7 mph26.9 kmh 29.65 in1004.1 mb 0.00 in0.0 mm 0.00 in0.0 mm 0.02 in0.5 mm
08:40 AM 59.0°F15.0°C 58.2°F14.6°C 97% 17.4 mph SE28.0 kmh SE 16.7 mph26.9 kmh 29.65 in1004.1 mb 0.00 in0.0 mm 0.00 in0.0 mm 0.02 in0.5 mm
08:50 AM 59.5°F15.3°C 58.7°F14.8°C 97% 14.5 mph SSW23.3 kmh SSW 16.7 mph26.9 kmh 29.65 in1004.1 mb 0.00 in0.0 mm 0.00 in0.0 mm 0.02 in0.5 mm
09:00 AM 60.1°F15.6°C 58.6°F14.8°C 95% 14.9 mph S24.0 kmh S 18.5 mph29.8 kmh 29.65 in1004.1 mb 0.00 in0.0 mm 0.00 in0.0 mm 0.02 in0.5 mm
09:10 AM 60.4°F15.8°C 58.7°F14.8°C 94% 13.0 mph SSE20.9 kmh SSE 15.0 mph24.1 kmh 29.65 in1004.1 mb 0.00 in0.0 mm 0.00 in0.0 mm 0.02 in0.5 mm
09:20 AM 60.6°F15.9°C 58.9°F14.9°C 94% 17.0 mph S27.4 kmh S 18.5 mph29.8 kmh 29.65 in1004.1 mb 0.00 in0.0 mm 0.00 in0.0 mm 0.02 in0.5 mm
09:30 AM 61.7°F16.5°C 59.7°F15.4°C 93% 12.3 mph S19.8 kmh S 13.3 mph21.4 kmh 29.65 in1004.1 mb 0.00 in0.0 mm 0.00 in0.0 mm 0.02 in0.5 mm
09:40 AM 63.5°F17.5°C 58.9°F14.9°C 85% 17.0 mph SSE27.4 kmh SSE 19.2 mph30.9 kmh 29.65 in1004.1 mb 0.00 in0.0 mm 0.00 in0.0 mm 0.02 in0.5 mm
09:50 AM 64.9°F18.3°C 59.7°F15.4°C 83% 13.8 mph SE22.2 kmh SE 13.3 mph21.4 kmh 29.65 in1004.1 mb 0.00 in0.0 mm 0.00 in0.0 mm 0.02 in0.5 mm
10:00 AM 65.3°F18.5°C 59.7°F15.4°C 82% 14.1 mph S22.7 kmh S 17.5 mph28.2 kmh 29.65 in1004.1 mb 0.00 in0.0 mm 0.00 in0.0 mm 0.02 in0.5 mm
10:10 AM 65.8°F18.8°C 60.2°F15.7°C 82% 14.6 mph SE23.5 kmh SE 18.5 mph29.8 kmh 29.65 in1004.1 mb 0.00 in0.0 mm 0.00 in0.0 mm 0.02 in0.5 mm
10:20 AM 66.4°F19.1°C 60.4°F15.8°C 81% 13.1 mph S21.1 kmh S 14.3 mph23.0 kmh 29.65 in1004.1 mb 0.00 in0.0 mm 0.00 in0.0 mm 0.02 in0.5 mm
10:30 AM 66.0°F18.9°C 59.7°F15.4°C 80% 15.7 mph S25.3 kmh S 16.7 mph26.9 kmh 29.65 in1004.1 mb 0.00 in0.0 mm 0.00 in0.0 mm 0.02 in0.5 mm
10:40 AM 66.6°F19.2°C 60.5°F15.8°C 81% 14.1 mph SE22.7 kmh SE 16.0 mph25.7 kmh 29.64 in1003.7 mb 0.00 in0.0 mm 0.00 in0.0 mm 0.02 in0.5 mm
10:50 AM 66.0°F18.9°C 60.4°F15.8°C 82% 14.7 mph SSE23.7 kmh SSE 15.0 mph24.1 kmh 29.65 in1004.1 mb 0.00 in0.0 mm 0.00 in0.0 mm 0.02 in0.5 mm
11:00 AM 67.1°F19.5°C 60.4°F15.8°C 79% 13.9 mph SSE22.4 kmh SSE 16.0 mph25.7 kmh 29.65 in1004.1 mb 0.01 in0.3 mm 0.01 in0.3 mm 0.04 in1.0 mm
11:10 AM 66.4°F19.1°C 60.4°F15.8°C 81% 13.6 mph S21.9 kmh S 12.5 mph20.1 kmh 29.64 in1003.7 mb 0.01 in0.3 mm 0.00 in0.0 mm 0.04 in1.0 mm
11:20 AM 67.8°F19.9°C 61.1°F16.2°C 79% 13.2 mph S21.2 kmh S 16.7 mph26.9 kmh 29.64 in1003.7 mb 0.01 in0.3 mm 0.00 in0.0 mm 0.04 in1.0 mm
11:30 AM 66.6°F19.2°C 59.8°F15.4°C 79% 12.7 mph SSE20.4 kmh SSE 14.3 mph23.0 kmh 29.64 in1003.7 mb 0.01 in0.3 mm 0.00 in0.0 mm 0.04 in1.0 mm
11:40 AM 68.0°F20.0°C 60.9°F16.1°C 78% 13.2 mph SE21.2 kmh SE 14.3 mph23.0 kmh 29.64 in1003.7 mb 0.01 in0.3 mm 0.00 in0.0 mm 0.04 in1.0 mm
11:50 AM 66.7°F19.3°C 59.7°F15.4°C 78% 13.3 mph SSE21.4 kmh SSE 16.0 mph25.7 kmh 29.64 in1003.7 mb 0.01 in0.3 mm 0.00 in0.0 mm 0.04 in1.0 mm
12:00 PM 66.6°F19.2°C 59.8°F15.4°C 79% 13.3 mph S21.4 kmh S 16.0 mph25.7 kmh 29.63 in1003.4 mb 0.00 in0.0 mm 0.00 in0.0 mm 0.04 in1.0 mm
12:10 PM 68.0°F20.0°C 61.2°F16.2°C 79% 11.5 mph WSW18.5 kmh WSW 16.7 mph26.9 kmh 29.63 in1003.4 mb 0.00 in0.0 mm 0.00 in0.0 mm 0.04 in1.0 mm
12:20 PM 69.3°F20.7°C 61.4°F16.3°C 76% 13.5 mph SSE21.7 kmh SSE 13.3 mph21.4 kmh 29.63 in1003.4 mb 0.00 in0.0 mm 0.00 in0.0 mm 0.04 in1.0 mm
12:30 PM 69.3°F20.7°C 61.0°F16.1°C 75% 15.4 mph SSE24.8 kmh SSE 19.2 mph30.9 kmh 29.63 in1003.4 mb 0.00 in0.0 mm 0.00 in0.0 mm 0.04 in1.0 mm
12:40 PM 69.6°F20.9°C 61.3°F16.3°C 75% 16.5 mph S26.6 kmh S 19.2 mph30.9 kmh 29.63 in1003.4 mb 0.00 in0.0 mm 0.00 in0.0 mm 0.04 in1.0 mm
12:50 PM 70.0°F21.1°C 61.3°F16.3°C 74% 14.0 mph S22.5 kmh S 13.3 mph21.4 kmh 29.63 in1003.4 mb 0.00 in0.0 mm 0.00 in0.0 mm 0.04 in1.0 mm
01:00 PM 69.4°F20.8°C 61.2°F16.2°C 75% 16.8 mph SSE27.0 kmh SSE 16.0 mph25.7 kmh 29.62 in1003.0 mb 0.00 in0.0 mm 0.00 in0.0 mm 0.04 in1.0 mm
01:10 PM 69.6°F20.9°C 61.3°F16.3°C 75% 17.2 mph S27.7 kmh S 16.0 mph25.7 kmh 29.62 in1003.0 mb 0.00 in0.0 mm 0.00 in0.0 mm 0.04 in1.0 mm
01:20 PM 70.0°F21.1°C 61.7°F16.5°C 75% 13.6 mph S21.9 kmh S 15.0 mph24.1 kmh 29.63 in1003.4 mb 0.00 in0.0 mm 0.00 in0.0 mm 0.04 in1.0 mm
01:30 PM 70.2°F21.2°C 61.5°F16.4°C 74% 14.8 mph S23.8 kmh S 19.2 mph30.9 kmh 29.63 in1003.4 mb 0.00 in0.0 mm 0.00 in0.0 mm 0.04 in1.0 mm
01:40 PM 69.4°F20.8°C 61.2°F16.2°C 75% 13.9 mph S22.4 kmh S 16.7 mph26.9 kmh 29.62 in1003.0 mb 0.00 in0.0 mm 0.00 in0.0 mm 0.04 in1.0 mm
01:50 PM 69.1°F20.6°C 61.2°F16.2°C 76% 16.8 mph S27.0 kmh S 18.5 mph29.8 kmh 29.63 in1003.4 mb 0.00 in0.0 mm 0.00 in0.0 mm 0.04 in1.0 mm
02:00 PM 69.4°F20.8°C 61.5°F16.4°C 76% 16.0 mph S25.7 kmh S 16.7 mph26.9 kmh 29.62 in1003.0 mb 0.00 in0.0 mm 0.00 in0.0 mm 0.04 in1.0 mm
02:10 PM 70.0°F21.1°C 61.7°F16.5°C 75% 13.7 mph WSW22.0 kmh WSW 15.0 mph24.1 kmh 29.62 in1003.0 mb 0.00 in0.0 mm 0.00 in0.0 mm 0.04 in1.0 mm
02:20 PM 69.1°F20.6°C 60.8°F16.0°C 75% 16.3 mph S26.2 kmh S 15.0 mph24.1 kmh 29.62 in1003.0 mb 0.00 in0.0 mm 0.00 in0.0 mm 0.04 in1.0 mm
02:30 PM 68.5°F20.3°C 61.0°F16.1°C 77% 14.2 mph S22.9 kmh S 16.7 mph26.9 kmh 29.61 in1002.7 mb 0.00 in0.0 mm 0.00 in0.0 mm 0.04 in1.0 mm
02:40 PM 68.2°F20.1°C 60.7°F15.9°C 77% 13.0 mph SSE20.9 kmh SSE 14.3 mph23.0 kmh 29.62 in1003.0 mb 0.00 in0.0 mm 0.00 in0.0 mm 0.04 in1.0 mm
02:50 PM 68.0°F20.0°C 60.5°F15.8°C 77% 12.3 mph SE19.8 kmh SE 12.5 mph20.1 kmh 29.62 in1003.0 mb 0.00 in0.0 mm 0.00 in0.0 mm 0.04 in1.0 mm
03:00 PM 68.0°F20.0°C 60.9°F16.1°C 78% 10.5 mph SSE16.9 kmh SSE 14.3 mph23.0 kmh 29.62 in1003.0 mb 0.00 in0.0 mm 0.00 in0.0 mm 0.04 in1.0 mm
03:10 PM 67.8°F19.9°C 60.7°F15.9°C 78% 10.0 mph SSE16.1 kmh SSE 14.3 mph23.0 kmh 29.62 in1003.0 mb 0.00 in0.0 mm 0.00 in0.0 mm 0.04 in1.0 mm
03:20 PM 67.3°F19.6°C 60.2°F15.7°C 78% 10.2 mph SSW16.4 kmh SSW 11.8 mph19.0 kmh 29.62 in1003.0 mb 0.00 in0.0 mm 0.00 in0.0 mm 0.04 in1.0 mm
03:30 PM 67.1°F19.5°C 60.7°F15.9°C 80% 11.1 mph SSW17.9 kmh SSW 13.3 mph21.4 kmh 29.62 in1003.0 mb 0.00 in0.0 mm 0.00 in0.0 mm 0.04 in1.0 mm
03:40 PM 67.5°F19.7°C 60.4°F15.8°C 78% 17.9 mph SSE28.8 kmh SSE 20.9 mph33.6 kmh 29.62 in1003.0 mb 0.00 in0.0 mm 0.00 in0.0 mm 0.04 in1.0 mm
03:50 PM 67.1°F19.5°C 59.6°F15.3°C 77% 17.6 mph S28.3 kmh S 17.5 mph28.2 kmh 29.62 in1003.0 mb 0.00 in0.0 mm 0.00 in0.0 mm 0.04 in1.0 mm
04:00 PM 66.9°F19.4°C 59.8°F15.4°C 78% 16.0 mph SSE25.7 kmh SSE 17.5 mph28.2 kmh 29.63 in1003.4 mb 0.00 in0.0 mm 0.00 in0.0 mm 0.04 in1.0 mm
04:10 PM 66.6°F19.2°C 59.8°F15.4°C 79% 14.4 mph S23.2 kmh S 17.5 mph28.2 kmh 29.62 in1003.0 mb 0.00 in0.0 mm 0.00 in0.0 mm 0.04 in1.0 mm
04:20 PM 66.2°F19.0°C 59.8°F15.4°C 80% 17.1 mph S27.5 kmh S 19.2 mph30.9 kmh 29.62 in1003.0 mb 0.00 in0.0 mm 0.00 in0.0 mm 0.04 in1.0 mm
04:30 PM 66.0°F18.9°C 60.0°F15.6°C 81% 14.7 mph S23.7 kmh S 16.7 mph26.9 kmh 29.63 in1003.4 mb 0.00 in0.0 mm 0.00 in0.0 mm 0.04 in1.0 mm
04:40 PM 66.0°F18.9°C 60.0°F15.6°C 81% 17.8 mph S28.6 kmh S 22.6 mph36.4 kmh 29.62 in1003.0 mb 0.00 in0.0 mm 0.00 in0.0 mm 0.04 in1.0 mm
04:50 PM 65.7°F18.7°C 59.7°F15.4°C 81% 17.3 mph S27.8 kmh S 17.5 mph28.2 kmh 29.63 in1003.4 mb 0.00 in0.0 mm 0.00 in0.0 mm 0.04 in1.0 mm
05:00 PM 65.3°F18.5°C 59.7°F15.4°C 82% 16.4 mph S26.4 kmh S 16.0 mph25.7 kmh 29.63 in1003.4 mb 0.00 in0.0 mm 0.00 in0.0 mm 0.04 in1.0 mm
05:10 PM 64.9°F18.3°C 59.3°F15.2°C 82% 15.1 mph SE24.3 kmh SE 17.5 mph28.2 kmh 29.65 in1004.1 mb 0.00 in0.0 mm 0.00 in0.0 mm 0.04 in1.0 mm
05:20 PM 64.8°F18.2°C 59.1°F15.1°C 82% 13.6 mph SSE21.9 kmh SSE 14.3 mph23.0 kmh 29.65 in1004.1 mb 0.00 in0.0 mm 0.00 in0.0 mm 0.04 in1.0 mm
05:30 PM 64.6°F18.1°C 59.0°F15.0°C 82% 15.8 mph S25.4 kmh S 17.5 mph28.2 kmh 29.66 in1004.4 mb 0.00 in0.0 mm 0.00 in0.0 mm 0.04 in1.0 mm
05:40 PM 64.2°F17.9°C 58.6°F14.8°C 82% 14.7 mph S23.7 kmh S 15.0 mph24.1 kmh 29.66 in1004.4 mb 0.00 in0.0 mm 0.00 in0.0 mm 0.04 in1.0 mm
05:50 PM 64.4°F18.0°C 58.8°F14.9°C 82% 15.2 mph SSE24.5 kmh SSE 16.0 mph25.7 kmh 29.67 in1004.7 mb 0.00 in0.0 mm 0.00 in0.0 mm 0.04 in1.0 mm
06:00 PM 64.2°F17.9°C 58.9°F14.9°C 83% 13.7 mph SSE22.0 kmh SSE 16.0 mph25.7 kmh 29.67 in1004.7 mb 0.00 in0.0 mm 0.00 in0.0 mm 0.04 in1.0 mm
06:10 PM 64.0°F17.8°C 58.8°F14.9°C 83% 12.8 mph S20.6 kmh S 15.0 mph24.1 kmh 29.68 in1005.1 mb 0.00 in0.0 mm 0.00 in0.0 mm 0.04 in1.0 mm
06:20 PM 63.9°F17.7°C 58.3°F14.6°C 82% 14.4 mph SE23.2 kmh SE 15.0 mph24.1 kmh 29.67 in1004.7 mb 0.00 in0.0 mm 0.00 in0.0 mm 0.04 in1.0 mm
06:30 PM 63.7°F17.6°C 58.4°F14.7°C 83% 16.5 mph S26.6 kmh S 16.0 mph25.7 kmh 29.67 in1004.7 mb 0.00 in0.0 mm 0.00 in0.0 mm 0.04 in1.0 mm
06:40 PM 63.7°F17.6°C 58.4°F14.7°C 83% 15.1 mph S24.3 kmh S 18.5 mph29.8 kmh 29.67 in1004.7 mb 0.00 in0.0 mm 0.00 in0.0 mm 0.04 in1.0 mm
06:50 PM 63.7°F17.6°C 58.1°F14.5°C 82% 15.4 mph SSE24.8 kmh SSE 17.5 mph28.2 kmh 29.67 in1004.7 mb 0.00 in0.0 mm 0.00 in0.0 mm 0.04 in1.0 mm
07:00 PM 63.7°F17.6°C 58.1°F14.5°C 82% 17.5 mph SSE28.2 kmh SSE 17.5 mph28.2 kmh 29.67 in1004.7 mb 0.00 in0.0 mm 0.00 in0.0 mm 0.04 in1.0 mm
07:10 PM 63.3°F17.4°C 58.1°F14.5°C 83% 16.0 mph S25.7 kmh S 16.7 mph26.9 kmh 29.67 in1004.7 mb 0.00 in0.0 mm 0.00 in0.0 mm 0.04 in1.0 mm
07:20 PM 63.1°F17.3°C 57.9°F14.4°C 83% 17.0 mph SSE27.4 kmh SSE 17.5 mph28.2 kmh 29.67 in1004.7 mb 0.00 in0.0 mm 0.00 in0.0 mm 0.04 in1.0 mm
07:30 PM 63.0°F17.2°C 57.7°F14.3°C 83% 16.3 mph S26.2 kmh S 20.2 mph32.5 kmh 29.67 in1004.7 mb 0.00 in0.0 mm 0.00 in0.0 mm 0.04 in1.0 mm
07:40 PM 63.0°F17.2°C 57.7°F14.3°C 83% 15.9 mph SSE25.6 kmh SSE 20.2 mph32.5 kmh 29.68 in1005.1 mb 0.00 in0.0 mm 0.00 in0.0 mm 0.04 in1.0 mm
07:50 PM 62.6°F17.0°C 57.4°F14.1°C 83% 13.1 mph S21.1 kmh S 14.3 mph23.0 kmh 29.67 in1004.7 mb 0.00 in0.0 mm 0.00 in0.0 mm 0.04 in1.0 mm
08:00 PM 62.2°F16.8°C 58.3°F14.6°C 87% 11.8 mph S19.0 kmh S 14.3 mph23.0 kmh 29.66 in1004.4 mb 0.00 in0.0 mm 0.00 in0.0 mm 0.04 in1.0 mm
08:10 PM 61.7°F16.5°C 58.1°F14.5°C 88% 8.9 mph S14.3 kmh S 10.1 mph16.3 kmh 29.67 in1004.7 mb 0.00 in0.0 mm 0.00 in0.0 mm 0.04 in1.0 mm
08:20 PM 61.5°F16.4°C 57.9°F14.4°C 88% 11.9 mph S19.2 kmh S 14.3 mph23.0 kmh 29.68 in1005.1 mb 0.00 in0.0 mm 0.00 in0.0 mm 0.04 in1.0 mm
08:30 PM 61.7°F16.5°C 58.1°F14.5°C 88% 13.8 mph SSW22.2 kmh SSW 16.0 mph25.7 kmh 29.68 in1005.1 mb 0.00 in0.0 mm 0.00 in0.0 mm 0.04 in1.0 mm
08:40 PM 62.2°F16.8°C 58.3°F14.6°C 87% 14.8 mph SSE23.8 kmh SSE 15.0 mph24.1 kmh 29.68 in1005.1 mb 0.00 in0.0 mm 0.00 in0.0 mm 0.04 in1.0 mm
08:50 PM 62.1°F16.7°C 58.1°F14.5°C 87% 14.0 mph SSE22.5 kmh SSE 14.3 mph23.0 kmh 29.68 in1005.1 mb 0.00 in0.0 mm 0.00 in0.0 mm 0.04 in1.0 mm
09:00 PM 61.7°F16.5°C 57.8°F14.3°C 87% 12.1 mph SSE19.5 kmh SSE 16.0 mph25.7 kmh 29.69 in1005.4 mb 0.00 in0.0 mm 0.00 in0.0 mm 0.04 in1.0 mm
09:10 PM 61.5°F16.4°C 57.9°F14.4°C 88% 11.9 mph S19.2 kmh S 11.8 mph19.0 kmh 29.69 in1005.4 mb 0.00 in0.0 mm 0.00 in0.0 mm 0.04 in1.0 mm
09:20 PM 61.2°F16.2°C 57.6°F14.2°C 88% 11.6 mph S18.7 kmh S 11.8 mph19.0 kmh 29.69 in1005.4 mb 0.00 in0.0 mm 0.00 in0.0 mm 0.04 in1.0 mm
09:30 PM 60.6°F15.9°C 57.4°F14.1°C 89% 10.6 mph SSW17.1 kmh SSW 11.8 mph19.0 kmh 29.70 in1005.8 mb 0.00 in0.0 mm 0.00 in0.0 mm 0.04 in1.0 mm
09:40 PM 60.3°F15.7°C 57.6°F14.2°C 91% 8.0 mph S12.9 kmh S 8.4 mph13.5 kmh 29.70 in1005.8 mb 0.00 in0.0 mm 0.00 in0.0 mm 0.04 in1.0 mm
09:50 PM 59.9°F15.5°C 57.6°F14.2°C 92% 8.5 mph S13.7 kmh S 10.1 mph16.3 kmh 29.70 in1005.8 mb 0.00 in0.0 mm 0.00 in0.0 mm 0.04 in1.0 mm
10:00 PM 59.7°F15.4°C 57.4°F14.1°C 92% 7.2 mph S11.6 kmh S 8.4 mph13.5 kmh 29.70 in1005.8 mb 0.00 in0.0 mm 0.00 in0.0 mm 0.04 in1.0 mm
10:10 PM 59.7°F15.4°C 57.7°F14.3°C 93% 7.0 mph S11.3 kmh S 6.6 mph10.6 kmh 29.69 in1005.4 mb 0.00 in0.0 mm 0.00 in0.0 mm 0.04 in1.0 mm
10:20 PM 59.7°F15.4°C 57.7°F14.3°C 93% 8.4 mph S13.5 kmh S 9.1 mph14.6 kmh 29.70 in1005.8 mb 0.00 in0.0 mm 0.00 in0.0 mm 0.04 in1.0 mm
10:30 PM 59.7°F15.4°C 57.4°F14.1°C 92% 10.9 mph SSE17.5 kmh SSE 10.1 mph16.3 kmh 29.70 in1005.8 mb 0.00 in0.0 mm 0.00 in0.0 mm 0.04 in1.0 mm
10:40 PM 59.5°F15.3°C 57.2°F14.0°C 92% 11.4 mph SE18.3 kmh SE 11.8 mph19.0 kmh 29.70 in1005.8 mb 0.00 in0.0 mm 0.00 in0.0 mm 0.04 in1.0 mm
10:50 PM 59.2°F15.1°C 56.9°F13.8°C 92% 10.0 mph SSE16.1 kmh SSE 11.8 mph19.0 kmh 29.70 in1005.8 mb 0.00 in0.0 mm 0.00 in0.0 mm 0.04 in1.0 mm
11:00 PM 58.8°F14.9°C 56.8°F13.8°C 93% 10.1 mph S16.3 kmh S 11.8 mph19.0 kmh 29.71 in1006.1 mb 0.00 in0.0 mm 0.00 in0.0 mm 0.03 in0.8 mm
11:10 PM 58.3°F14.6°C 56.3°F13.5°C 93% 7.9 mph S12.7 kmh S 8.4 mph13.5 kmh 29.72 in1006.4 mb 0.00 in0.0 mm 0.00 in0.0 mm 0.03 in0.8 mm
11:20 PM 57.9°F14.4°C 55.9°F13.3°C 93% 10.1 mph S16.3 kmh S 10.8 mph17.4 kmh 29.72 in1006.4 mb 0.00 in0.0 mm 0.00 in0.0 mm 0.03 in0.8 mm
11:30 PM 57.6°F14.2°C 55.6°F13.1°C 93% 9.5 mph SE15.3 kmh SE 10.1 mph16.3 kmh 29.72 in1006.4 mb 0.00 in0.0 mm 0.00 in0.0 mm 0.03 in0.8 mm
11:40 PM 57.2°F14.0°C 55.2°F12.9°C 93% 9.9 mph S15.9 kmh S 10.8 mph17.4 kmh 29.72 in1006.4 mb 0.00 in0.0 mm 0.00 in0.0 mm 0.03 in0.8 mm
11:50 PM 57.0°F13.9°C 55.0°F12.8°C 93% 7.8 mph SSW12.6 kmh SSW 10.1 mph16.3 kmh 29.72 in1006.4 mb 0.00 in0.0 mm 0.00 in0.0 mm 0.03 in0.8 mm